Aviation Digital Data Service (ADDS)

Output produced by METARs form (0519 UTC 24 January 2019)
found at http://www.aviationweather.gov/metar/data/
 
Forecast for: YBRM (BROOME AIRPORT , AU)
Text: TAF YBRM 232304Z 2400/2424 09014G25KT 9999 -RA BKN020
Forecast period: 0000 UTC 24 January 2019 to 0000 UTC 25 January 2019
Forecast type: FROM: standard forecast or significant change
Winds: from the E (90 degrees) at 16 MPH (14 knots; 7.2 m/s)
gusting to 29 MPH (25 knots; 12.9 m/s)
Visibility: 6 or more miles 10+ km)
Ceiling: 2000 feet AGL
Clouds: broken clouds at 2000 feet AGL
Weather: -RA  (light rain)
Text: TEMPO 2400/2418 3000 RA BKN005
Forecast period: 0000 to 1800 UTC 24 January 2019
Forecast type: TEMPORARY: The following changes expected for less than half the time period
Visibility: 1.86 miles (2.99 km)
Ceiling: 500 feet AGL
Clouds: broken clouds at 500 feet AGL
Weather: RA  (moderate rain)
Text: PROB30 INTER 2400/2424 VRB25G45KT 1000 TSRA BKN005 FEW030CB
Forecast period: 0000 UTC 24 January 2019 to 0000 UTC 25 January 2019
Forecast type: TEMPORARY: The following changes expected for less than half the time period
Winds: variable direction winds at 29 MPH (25 knots; 12.9 m/s)
gusting to 52 MPH (45 knots; 23.1 m/s)
Visibility: 0.62 miles (1.00 km)
Ceiling: 500 feet AGL
Clouds: broken clouds at 500 feet AGL
few clouds at 3000 feet AGL
Weather: TSRA  (rain associated with thunderstorm(s))